KDTN/DTN METAR and TAF weather

Enter ICAO airport designator
Station Type Date Time Source
KDTN METAR 2022/11/30 15:53 UTC NOAA

KDTN 301553Z AUTO 01013G18KT 10SM CLR 08/M02 A3039 RMK AO2 SLP290 T00831022


Station Type Date Time Source
KDTN Decoded METAR 2022/11/30 15:53 UTC NOAA

SHREVEPORT DOWNTOWN AIRPORT, LA, United States (KDTN) 32-32N 093-45W 53M
Nov 30, 2022 - 10:53 AM EST / 2022.11.30 1553 UTC
Wind: from the N (010 degrees) at 15 MPH (13 KT) gusting to 21 MPH (18 KT):0
Visibility: 10 mile(s):0
Sky conditions: clear
Temperature: 46.9 F (8.3 C)
Dew Point: 28.0 F (-2.2 C)
Relative Humidity: 47%
Pressure (altimeter): 30.39 in. Hg (1029 hPa)
ob: KDTN 301553Z AUTO 01013G18KT 10SM CLR 08/M02 A3039 RMK AO2 SLP290 T00831022
cycle: 16

Station Type Date Time Source
KDTN TAF UTC NOAA

Error!

Example: see airport list